sensor_id;sensor_type;location;lat;lon;timestamp;P1;durP1;ratioP1;P2;durP2;ratioP2
5752;SDS011;2901;42.140;24.760;2023-05-07T00:01:42;5.00;;;4.70;;
5752;SDS011;2901;42.140;24.760;2023-05-07T00:04:07;5.10;;;4.60;;
5752;SDS011;2901;42.140;24.760;2023-05-07T00:06:33;5.55;;;5.15;;
5752;SDS011;2901;42.140;24.760;2023-05-07T00:08:58;6.22;;;5.22;;
5752;SDS011;2901;42.140;24.760;2023-05-07T00:11:24;5.63;;;5.07;;
5752;SDS011;2901;42.140;24.760;2023-05-07T00:13:51;5.20;;;4.90;;
5752;SDS011;2901;42.140;24.760;2023-05-07T00:16:16;4.82;;;4.57;;
5752;SDS011;2901;42.140;24.760;2023-05-07T00:18:42;6.30;;;4.60;;
5752;SDS011;2901;42.140;24.760;2023-05-07T00:21:07;5.65;;;5.03;;
5752;SDS011;2901;42.140;24.760;2023-05-07T00:23:32;7.18;;;5.50;;
5752;SDS011;2901;42.140;24.760;2023-05-07T00:25:58;5.07;;;4.68;;
5752;SDS011;2901;42.140;24.760;2023-05-07T00:28:23;5.90;;;4.97;;
5752;SDS011;2901;42.140;24.760;2023-05-07T00:30:48;5.38;;;4.07;;
5752;SDS011;2901;42.140;24.760;2023-05-07T00:33:14;6.53;;;4.40;;
5752;SDS011;2901;42.140;24.760;2023-05-07T00:35:39;5.40;;;5.00;;
5752;SDS011;2901;42.140;24.760;2023-05-07T00:38:05;5.05;;;4.75;;
5752;SDS011;2901;42.140;24.760;2023-05-07T00:40:30;6.10;;;4.97;;
5752;SDS011;2901;42.140;24.760;2023-05-07T00:42:55;5.43;;;4.93;;
5752;SDS011;2901;42.140;24.760;2023-05-07T00:45:23;5.05;;;4.75;;
5752;SDS011;2901;42.140;24.760;2023-05-07T00:47:57;6.43;;;4.90;;
5752;SDS011;2901;42.140;24.760;2023-05-07T00:50:25;4.38;;;4.03;;
5752;SDS011;2901;42.140;24.760;2023-05-07T00:52:52;4.20;;;3.95;;
5752;SDS011;2901;42.140;24.760;2023-05-07T00:55:18;4.53;;;4.32;;
5752;SDS011;2901;42.140;24.760;2023-05-07T00:57:44;6.72;;;4.72;;
5752;SDS011;2901;42.140;24.760;2023-05-07T01:00:10;5.00;;;4.70;;
5752;SDS011;2901;42.140;24.760;2023-05-07T01:02:40;5.25;;;4.90;;
5752;SDS011;2901;42.140;24.760;2023-05-07T01:05:07;4.68;;;4.43;;
5752;SDS011;2901;42.140;24.760;2023-05-07T01:07:34;5.68;;;4.90;;
5752;SDS011;2901;42.140;24.760;2023-05-07T01:10:02;5.57;;;5.20;;
5752;SDS011;2901;42.140;24.760;2023-05-07T01:12:28;5.35;;;5.05;;
5752;SDS011;2901;42.140;24.760;2023-05-07T01:14:55;5.20;;;4.90;;
5752;SDS011;2901;42.140;24.760;2023-05-07T01:17:21;5.28;;;4.78;;
5752;SDS011;2901;42.140;24.760;2023-05-07T01:19:47;5.97;;;5.43;;
5752;SDS011;2901;42.140;24.760;2023-05-07T01:22:13;5.68;;;4.70;;
5752;SDS011;2901;42.140;24.760;2023-05-07T01:24:41;4.50;;;4.30;;
5752;SDS011;2901;42.140;24.760;2023-05-07T01:27:07;5.65;;;4.88;;
5752;SDS011;2901;42.140;24.760;2023-05-07T01:29:33;6.00;;;5.35;;
5752;SDS011;2901;42.140;24.760;2023-05-07T01:31:59;4.68;;;4.47;;
5752;SDS011;2901;42.140;24.760;2023-05-07T01:34:25;7.07;;;5.50;;
5752;SDS011;2901;42.140;24.760;2023-05-07T01:36:53;6.20;;;5.80;;
5752;SDS011;2901;42.140;24.760;2023-05-07T01:39:22;6.45;;;5.90;;
5752;SDS011;2901;42.140;24.760;2023-05-07T01:41:49;5.47;;;5.10;;
5752;SDS011;2901;42.140;24.760;2023-05-07T01:44:15;7.22;;;5.22;;
5752;SDS011;2901;42.140;24.760;2023-05-07T01:46:41;6.32;;;5.63;;
5752;SDS011;2901;42.140;24.760;2023-05-07T01:49:07;6.38;;;4.72;;
5752;SDS011;2901;42.140;24.760;2023-05-07T01:51:33;5.63;;;5.32;;
5752;SDS011;2901;42.140;24.760;2023-05-07T01:53:58;8.57;;;5.60;;
5752;SDS011;2901;42.140;24.760;2023-05-07T01:56:25;6.57;;;6.05;;
5752;SDS011;2901;42.140;24.760;2023-05-07T01:58:50;7.43;;;6.70;;
5752;SDS011;2901;42.140;24.760;2023-05-07T02:01:16;7.22;;;6.82;;
5752;SDS011;2901;42.140;24.760;2023-05-07T02:03:42;8.23;;;7.53;;
5752;SDS011;2901;42.140;24.760;2023-05-07T02:06:08;8.30;;;6.28;;
5752;SDS011;2901;42.140;24.760;2023-05-07T02:08:33;7.68;;;6.97;;
5752;SDS011;2901;42.140;24.760;2023-05-07T02:10:59;7.53;;;6.85;;
5752;SDS011;2901;42.140;24.760;2023-05-07T02:13:26;6.47;;;6.15;;
5752;SDS011;2901;42.140;24.760;2023-05-07T02:15:53;7.00;;;6.50;;
5752;SDS011;2901;42.140;24.760;2023-05-07T02:18:19;6.47;;;5.88;;
5752;SDS011;2901;42.140;24.760;2023-05-07T02:20:44;7.15;;;5.90;;
5752;SDS011;2901;42.140;24.760;2023-05-07T02:23:10;6.75;;;5.72;;
5752;SDS011;2901;42.140;24.760;2023-05-07T02:25:35;6.95;;;5.25;;
5752;SDS011;2901;42.140;24.760;2023-05-07T02:28:00;6.63;;;6.32;;
5752;SDS011;2901;42.140;24.760;2023-05-07T02:30:26;6.60;;;5.88;;
5752;SDS011;2901;42.140;24.760;2023-05-07T02:32:51;6.43;;;5.95;;
5752;SDS011;2901;42.140;24.760;2023-05-07T02:35:17;6.85;;;6.32;;
5752;SDS011;2901;42.140;24.760;2023-05-07T02:37:42;6.82;;;6.20;;
5752;SDS011;2901;42.140;24.760;2023-05-07T02:40:08;6.85;;;5.95;;
5752;SDS011;2901;42.140;24.760;2023-05-07T02:42:34;6.05;;;5.68;;
5752;SDS011;2901;42.140;24.760;2023-05-07T02:45:00;9.25;;;6.70;;
5752;SDS011;2901;42.140;24.760;2023-05-07T02:47:25;7.07;;;5.82;;
5752;SDS011;2901;42.140;24.760;2023-05-07T02:49:54;6.75;;;6.07;;
5752;SDS011;2901;42.140;24.760;2023-05-07T02:52:20;6.57;;;6.00;;
5752;SDS011;2901;42.140;24.760;2023-05-07T02:54:46;6.47;;;6.15;;
5752;SDS011;2901;42.140;24.760;2023-05-07T02:57:11;6.65;;;6.05;;
5752;SDS011;2901;42.140;24.760;2023-05-07T02:59:37;7.10;;;6.40;;
5752;SDS011;2901;42.140;24.760;2023-05-07T03:02:02;9.20;;;7.07;;
5752;SDS011;2901;42.140;24.760;2023-05-07T03:04:27;7.40;;;7.00;;
5752;SDS011;2901;42.140;24.760;2023-05-07T03:06:53;7.70;;;7.10;;
5752;SDS011;2901;42.140;24.760;2023-05-07T03:09:18;7.63;;;7.13;;
5752;SDS011;2901;42.140;24.760;2023-05-07T03:11:44;10.82;;;7.68;;
5752;SDS011;2901;42.140;24.760;2023-05-07T03:14:09;7.75;;;7.30;;
5752;SDS011;2901;42.140;24.760;2023-05-07T03:16:35;9.15;;;8.45;;
5752;SDS011;2901;42.140;24.760;2023-05-07T03:19:00;14.25;;;8.40;;
5752;SDS011;2901;42.140;24.760;2023-05-07T03:21:26;9.43;;;7.50;;
5752;SDS011;2901;42.140;24.760;2023-05-07T03:23:51;9.30;;;8.38;;
5752;SDS011;2901;42.140;24.760;2023-05-07T03:26:17;10.82;;;8.65;;
5752;SDS011;2901;42.140;24.760;2023-05-07T03:28:42;9.38;;;8.52;;
5752;SDS011;2901;42.140;24.760;2023-05-07T03:31:07;9.98;;;8.88;;
5752;SDS011;2901;42.140;24.760;2023-05-07T03:33:33;9.95;;;9.20;;
5752;SDS011;2901;42.140;24.760;2023-05-07T03:36:00;11.40;;;9.45;;
5752;SDS011;2901;42.140;24.760;2023-05-07T03:38:25;10.75;;;9.82;;
5752;SDS011;2901;42.140;24.760;2023-05-07T03:40:51;10.40;;;9.70;;
5752;SDS011;2901;42.140;24.760;2023-05-07T03:43:16;12.05;;;10.02;;
5752;SDS011;2901;42.140;24.760;2023-05-07T03:45:41;10.85;;;9.95;;
5752;SDS011;2901;42.140;24.760;2023-05-07T03:48:07;11.07;;;10.02;;
5752;SDS011;2901;42.140;24.760;2023-05-07T03:50:32;10.90;;;10.07;;
5752;SDS011;2901;42.140;24.760;2023-05-07T03:52:58;9.98;;;9.20;;
5752;SDS011;2901;42.140;24.760;2023-05-07T03:55:23;9.77;;;9.13;;
5752;SDS011;2901;42.140;24.760;2023-05-07T03:57:49;10.52;;;9.52;;
5752;SDS011;2901;42.140;24.760;2023-05-07T04:00:14;11.35;;;10.45;;
5752;SDS011;2901;42.140;24.760;2023-05-07T04:02:40;10.95;;;10.25;;
5752;SDS011;2901;42.140;24.760;2023-05-07T04:05:05;11.68;;;10.68;;
5752;SDS011;2901;42.140;24.760;2023-05-07T04:07:31;12.05;;;11.13;;
5752;SDS011;2901;42.140;24.760;2023-05-07T04:09:56;12.45;;;11.30;;
5752;SDS011;2901;42.140;24.760;2023-05-07T04:12:21;11.45;;;10.52;;
5752;SDS011;2901;42.140;24.760;2023-05-07T04:14:47;10.77;;;10.07;;
5752;SDS011;2901;42.140;24.760;2023-05-07T04:17:12;11.05;;;10.25;;
5752;SDS011;2901;42.140;24.760;2023-05-07T04:19:38;11.00;;;10.15;;
5752;SDS011;2901;42.140;24.760;2023-05-07T04:22:03;11.70;;;9.82;;
5752;SDS011;2901;42.140;24.760;2023-05-07T04:24:31;11.80;;;9.73;;
5752;SDS011;2901;42.140;24.760;2023-05-07T04:26:57;11.18;;;9.55;;
5752;SDS011;2901;42.140;24.760;2023-05-07T04:29:23;11.52;;;10.02;;
5752;SDS011;2901;42.140;24.760;2023-05-07T04:31:49;10.05;;;9.07;;
5752;SDS011;2901;42.140;24.760;2023-05-07T04:34:14;10.73;;;9.88;;
5752;SDS011;2901;42.140;24.760;2023-05-07T04:36:40;9.68;;;8.88;;
5752;SDS011;2901;42.140;24.760;2023-05-07T04:39:05;9.35;;;8.70;;
5752;SDS011;2901;42.140;24.760;2023-05-07T04:41:31;10.05;;;9.45;;
5752;SDS011;2901;42.140;24.760;2023-05-07T04:43:57;11.65;;;9.43;;
5752;SDS011;2901;42.140;24.760;2023-05-07T04:46:23;8.93;;;8.35;;
5752;SDS011;2901;42.140;24.760;2023-05-07T04:48:49;9.95;;;9.02;;
5752;SDS011;2901;42.140;24.760;2023-05-07T04:51:15;9.02;;;8.23;;
5752;SDS011;2901;42.140;24.760;2023-05-07T04:53:40;9.07;;;8.48;;
5752;SDS011;2901;42.140;24.760;2023-05-07T04:56:06;9.60;;;8.88;;
5752;SDS011;2901;42.140;24.760;2023-05-07T04:58:31;8.65;;;8.10;;
5752;SDS011;2901;42.140;24.760;2023-05-07T05:00:57;9.23;;;8.32;;
5752;SDS011;2901;42.140;24.760;2023-05-07T05:03:23;8.43;;;7.78;;
5752;SDS011;2901;42.140;24.760;2023-05-07T05:05:49;8.18;;;7.40;;
5752;SDS011;2901;42.140;24.760;2023-05-07T05:08:16;9.27;;;8.68;;
5752;SDS011;2901;42.140;24.760;2023-05-07T05:10:42;8.27;;;7.75;;
5752;SDS011;2901;42.140;24.760;2023-05-07T05:13:08;8.50;;;7.90;;
5752;SDS011;2901;42.140;24.760;2023-05-07T05:15:34;8.82;;;8.02;;
5752;SDS011;2901;42.140;24.760;2023-05-07T05:18:00;8.65;;;8.05;;
5752;SDS011;2901;42.140;24.760;2023-05-07T05:20:25;9.73;;;8.95;;
5752;SDS011;2901;42.140;24.760;2023-05-07T05:22:50;8.48;;;7.85;;
5752;SDS011;2901;42.140;24.760;2023-05-07T05:25:16;7.70;;;7.30;;
5752;SDS011;2901;42.140;24.760;2023-05-07T05:27:41;9.60;;;8.10;;
5752;SDS011;2901;42.140;24.760;2023-05-07T05:30:07;7.78;;;7.28;;
5752;SDS011;2901;42.140;24.760;2023-05-07T05:32:32;8.25;;;7.75;;
5752;SDS011;2901;42.140;24.760;2023-05-07T05:34:58;8.18;;;7.47;;
5752;SDS011;2901;42.140;24.760;2023-05-07T05:37:23;8.68;;;7.88;;
5752;SDS011;2901;42.140;24.760;2023-05-07T05:39:49;8.38;;;7.50;;
5752;SDS011;2901;42.140;24.760;2023-05-07T05:42:15;8.18;;;7.45;;
5752;SDS011;2901;42.140;24.760;2023-05-07T05:44:40;7.53;;;6.95;;
5752;SDS011;2901;42.140;24.760;2023-05-07T05:47:05;7.47;;;7.00;;
5752;SDS011;2901;42.140;24.760;2023-05-07T05:49:31;7.00;;;6.53;;
5752;SDS011;2901;42.140;24.760;2023-05-07T05:51:56;12.13;;;6.55;;
5752;SDS011;2901;42.140;24.760;2023-05-07T05:54:22;10.32;;;6.65;;
5752;SDS011;2901;42.140;24.760;2023-05-07T05:56:47;7.05;;;6.45;;
5752;SDS011;2901;42.140;24.760;2023-05-07T05:59:13;9.05;;;6.45;;
5752;SDS011;2901;42.140;24.760;2023-05-07T06:01:39;6.97;;;6.57;;
5752;SDS011;2901;42.140;24.760;2023-05-07T06:04:04;7.55;;;6.97;;
5752;SDS011;2901;42.140;24.760;2023-05-07T06:06:29;7.32;;;6.82;;
5752;SDS011;2901;42.140;24.760;2023-05-07T06:08:56;7.05;;;6.38;;
5752;SDS011;2901;42.140;24.760;2023-05-07T06:11:22;7.22;;;5.90;;
5752;SDS011;2901;42.140;24.760;2023-05-07T06:13:47;7.90;;;6.30;;
5752;SDS011;2901;42.140;24.760;2023-05-07T06:16:13;10.55;;;6.90;;
5752;SDS011;2901;42.140;24.760;2023-05-07T06:18:40;5.85;;;5.45;;
5752;SDS011;2901;42.140;24.760;2023-05-07T06:21:05;6.00;;;5.60;;
5752;SDS011;2901;42.140;24.760;2023-05-07T06:23:30;7.80;;;5.70;;
5752;SDS011;2901;42.140;24.760;2023-05-07T06:25:56;6.72;;;5.97;;
5752;SDS011;2901;42.140;24.760;2023-05-07T06:28:21;5.72;;;5.38;;
5752;SDS011;2901;42.140;24.760;2023-05-07T06:30:46;7.10;;;6.43;;
5752;SDS011;2901;42.140;24.760;2023-05-07T06:33:13;6.63;;;6.00;;
5752;SDS011;2901;42.140;24.760;2023-05-07T06:35:39;7.72;;;6.97;;
5752;SDS011;2901;42.140;24.760;2023-05-07T06:38:04;7.32;;;6.68;;
5752;SDS011;2901;42.140;24.760;2023-05-07T06:40:30;7.15;;;6.72;;
5752;SDS011;2901;42.140;24.760;2023-05-07T06:42:55;7.63;;;6.43;;
5752;SDS011;2901;42.140;24.760;2023-05-07T06:45:20;7.10;;;6.40;;
5752;SDS011;2901;42.140;24.760;2023-05-07T06:47:46;7.47;;;7.07;;
5752;SDS011;2901;42.140;24.760;2023-05-07T06:50:11;7.47;;;6.88;;
5752;SDS011;2901;42.140;24.760;2023-05-07T06:52:37;8.55;;;6.82;;
5752;SDS011;2901;42.140;24.760;2023-05-07T06:55:02;7.10;;;6.35;;
5752;SDS011;2901;42.140;24.760;2023-05-07T06:57:28;7.00;;;6.15;;
5752;SDS011;2901;42.140;24.760;2023-05-07T06:59:53;7.90;;;7.20;;
5752;SDS011;2901;42.140;24.760;2023-05-07T07:02:18;6.60;;;5.97;;
5752;SDS011;2901;42.140;24.760;2023-05-07T07:04:44;7.47;;;6.53;;
5752;SDS011;2901;42.140;24.760;2023-05-07T07:07:10;7.03;;;6.35;;
5752;SDS011;2901;42.140;24.760;2023-05-07T07:09:35;7.68;;;6.13;;
5752;SDS011;2901;42.140;24.760;2023-05-07T07:12:00;7.57;;;7.05;;
5752;SDS011;2901;42.140;24.760;2023-05-07T07:14:26;6.57;;;6.20;;
5752;SDS011;2901;42.140;24.760;2023-05-07T07:16:51;8.57;;;6.65;;
5752;SDS011;2901;42.140;24.760;2023-05-07T07:19:17;10.63;;;6.85;;
5752;SDS011;2901;42.140;24.760;2023-05-07T07:21:42;6.78;;;6.18;;
5752;SDS011;2901;42.140;24.760;2023-05-07T07:24:08;7.68;;;6.63;;
5752;SDS011;2901;42.140;24.760;2023-05-07T07:26:33;7.32;;;6.63;;
5752;SDS011;2901;42.140;24.760;2023-05-07T07:28:58;7.68;;;6.93;;
5752;SDS011;2901;42.140;24.760;2023-05-07T07:31:24;9.48;;;6.25;;
5752;SDS011;2901;42.140;24.760;2023-05-07T07:33:49;6.93;;;6.47;;
5752;SDS011;2901;42.140;24.760;2023-05-07T07:36:15;7.15;;;6.40;;
5752;SDS011;2901;42.140;24.760;2023-05-07T07:38:40;6.97;;;6.43;;
5752;SDS011;2901;42.140;24.760;2023-05-07T07:41:07;6.68;;;6.25;;
5752;SDS011;2901;42.140;24.760;2023-05-07T07:43:33;6.55;;;6.15;;
5752;SDS011;2901;42.140;24.760;2023-05-07T07:45:58;6.85;;;6.35;;
5752;SDS011;2901;42.140;24.760;2023-05-07T07:48:24;10.25;;;7.40;;
5752;SDS011;2901;42.140;24.760;2023-05-07T07:50:49;7.13;;;6.70;;
5752;SDS011;2901;42.140;24.760;2023-05-07T07:53:18;6.03;;;5.65;;
5752;SDS011;2901;42.140;24.760;2023-05-07T07:55:43;7.07;;;6.32;;
5752;SDS011;2901;42.140;24.760;2023-05-07T07:58:09;6.50;;;5.95;;
5752;SDS011;2901;42.140;24.760;2023-05-07T08:00:35;11.13;;;6.13;;
5752;SDS011;2901;42.140;24.760;2023-05-07T08:03:00;6.30;;;5.82;;
5752;SDS011;2901;42.140;24.760;2023-05-07T08:05:28;5.75;;;5.45;;
5752;SDS011;2901;42.140;24.760;2023-05-07T08:07:53;6.30;;;5.53;;
5752;SDS011;2901;42.140;24.760;2023-05-07T08:10:19;5.65;;;5.25;;
5752;SDS011;2901;42.140;24.760;2023-05-07T08:12:48;5.88;;;5.20;;
5752;SDS011;2901;42.140;24.760;2023-05-07T08:15:14;7.00;;;6.38;;
5752;SDS011;2901;42.140;24.760;2023-05-07T08:17:39;6.07;;;4.90;;
5752;SDS011;2901;42.140;24.760;2023-05-07T08:20:05;5.60;;;5.22;;
5752;SDS011;2901;42.140;24.760;2023-05-07T08:22:31;7.20;;;4.38;;
5752;SDS011;2901;42.140;24.760;2023-05-07T08:24:57;3.67;;;3.47;;
5752;SDS011;2901;42.140;24.760;2023-05-07T08:27:22;3.72;;;3.47;;
5752;SDS011;2901;42.140;24.760;2023-05-07T08:29:47;5.05;;;4.57;;
5752;SDS011;2901;42.140;24.760;2023-05-07T08:32:13;3.22;;;3.03;;
5752;SDS011;2901;42.140;24.760;2023-05-07T08:34:39;3.00;;;2.90;;
5752;SDS011;2901;42.140;24.760;2023-05-07T08:37:05;3.78;;;3.17;;
5752;SDS011;2901;42.140;24.760;2023-05-07T08:39:30;4.10;;;3.03;;
5752;SDS011;2901;42.140;24.760;2023-05-07T08:41:56;3.78;;;3.47;;
5752;SDS011;2901;42.140;24.760;2023-05-07T08:44:26;3.10;;;2.90;;
5752;SDS011;2901;42.140;24.760;2023-05-07T08:46:53;5.78;;;3.33;;
5752;SDS011;2901;42.140;24.760;2023-05-07T08:49:20;5.13;;;3.22;;
5752;SDS011;2901;42.140;24.760;2023-05-07T08:51:46;5.32;;;3.58;;
5752;SDS011;2901;42.140;24.760;2023-05-07T08:54:12;4.38;;;3.28;;
5752;SDS011;2901;42.140;24.760;2023-05-07T08:56:41;3.30;;;3.10;;
5752;SDS011;2901;42.140;24.760;2023-05-07T08:59:06;3.45;;;3.25;;
5752;SDS011;2901;42.140;24.760;2023-05-07T09:01:32;8.68;;;3.20;;
5752;SDS011;2901;42.140;24.760;2023-05-07T09:03:57;3.28;;;3.08;;
5752;SDS011;2901;42.140;24.760;2023-05-07T09:06:23;4.28;;;2.92;;
5752;SDS011;2901;42.140;24.760;2023-05-07T09:08:49;6.22;;;3.13;;
5752;SDS011;2901;42.140;24.760;2023-05-07T09:11:16;2.45;;;2.35;;
5752;SDS011;2901;42.140;24.760;2023-05-07T09:13:42;4.57;;;2.72;;
5752;SDS011;2901;42.140;24.760;2023-05-07T09:16:11;3.13;;;2.92;;
5752;SDS011;2901;42.140;24.760;2023-05-07T09:18:41;2.38;;;2.28;;
5752;SDS011;2901;42.140;24.760;2023-05-07T09:21:09;2.40;;;2.30;;
5752;SDS011;2901;42.140;24.760;2023-05-07T09:23:35;3.63;;;2.20;;
5752;SDS011;2901;42.140;24.760;2023-05-07T09:26:01;3.38;;;2.50;;
5752;SDS011;2901;42.140;24.760;2023-05-07T09:28:27;2.25;;;1.80;;
5752;SDS011;2901;42.140;24.760;2023-05-07T09:30:52;2.78;;;2.58;;
5752;SDS011;2901;42.140;24.760;2023-05-07T09:33:17;2.35;;;2.25;;
5752;SDS011;2901;42.140;24.760;2023-05-07T09:35:43;2.20;;;2.10;;
5752;SDS011;2901;42.140;24.760;2023-05-07T09:38:08;3.78;;;2.33;;
5752;SDS011;2901;42.140;24.760;2023-05-07T09:40:34;2.38;;;2.17;;
5752;SDS011;2901;42.140;24.760;2023-05-07T09:43:09;3.10;;;2.78;;
5752;SDS011;2901;42.140;24.760;2023-05-07T09:45:36;2.50;;;2.35;;
5752;SDS011;2901;42.140;24.760;2023-05-07T09:48:01;3.88;;;2.92;;
5752;SDS011;2901;42.140;24.760;2023-05-07T09:50:32;2.75;;;2.53;;
5752;SDS011;2901;42.140;24.760;2023-05-07T09:53:05;2.95;;;2.53;;
5752;SDS011;2901;42.140;24.760;2023-05-07T09:55:31;2.65;;;2.45;;
5752;SDS011;2901;42.140;24.760;2023-05-07T09:57:57;3.33;;;2.38;;
5752;SDS011;2901;42.140;24.760;2023-05-07T10:00:24;3.58;;;2.60;;
5752;SDS011;2901;42.140;24.760;2023-05-07T10:02:53;2.67;;;2.58;;
5752;SDS011;2901;42.140;24.760;2023-05-07T10:05:23;2.45;;;2.28;;
5752;SDS011;2901;42.140;24.760;2023-05-07T10:07:50;4.10;;;2.65;;
5752;SDS011;2901;42.140;24.760;2023-05-07T10:10:15;2.67;;;2.58;;
5752;SDS011;2901;42.140;24.760;2023-05-07T10:12:42;3.67;;;2.72;;
5752;SDS011;2901;42.140;24.760;2023-05-07T10:15:08;3.08;;;2.60;;
5752;SDS011;2901;42.140;24.760;2023-05-07T10:17:35;2.35;;;2.25;;
5752;SDS011;2901;42.140;24.760;2023-05-07T10:20:02;2.67;;;2.47;;
5752;SDS011;2901;42.140;24.760;2023-05-07T10:22:29;2.70;;;2.60;;
5752;SDS011;2901;42.140;24.760;2023-05-07T10:25:06;3.55;;;2.28;;
5752;SDS011;2901;42.140;24.760;2023-05-07T10:27:38;7.63;;;2.90;;
5752;SDS011;2901;42.140;24.760;2023-05-07T10:32:35;5.53;;;2.65;;
5752;SDS011;2901;42.140;24.760;2023-05-07T10:35:10;2.72;;;2.30;;
5752;SDS011;2901;42.140;24.760;2023-05-07T10:37:40;4.03;;;2.45;;
5752;SDS011;2901;42.140;24.760;2023-05-07T10:40:06;4.63;;;2.58;;
5752;SDS011;2901;42.140;24.760;2023-05-07T10:42:34;3.45;;;2.33;;
5752;SDS011;2901;42.140;24.760;2023-05-07T10:45:11;2.65;;;2.47;;
5752;SDS011;2901;42.140;24.760;2023-05-07T10:50:43;3.97;;;2.28;;
5752;SDS011;2901;42.140;24.760;2023-05-07T10:53:27;3.40;;;2.95;;
5752;SDS011;2901;42.140;24.760;2023-05-07T10:58:41;6.85;;;2.50;;
5752;SDS011;2901;42.140;24.760;2023-05-07T11:01:07;2.85;;;2.10;;
5752;SDS011;2901;42.140;24.760;2023-05-07T11:03:32;2.72;;;2.53;;
5752;SDS011;2901;42.140;24.760;2023-05-07T11:06:10;2.63;;;2.30;;
5752;SDS011;2901;42.140;24.760;2023-05-07T11:11:16;2.15;;;2.05;;
5752;SDS011;2901;42.140;24.760;2023-05-07T11:16:23;3.17;;;2.25;;
5752;SDS011;2901;42.140;24.760;2023-05-07T11:18:53;2.30;;;2.13;;
5752;SDS011;2901;42.140;24.760;2023-05-07T11:24:11;2.22;;;2.05;;
5752;SDS011;2901;42.140;24.760;2023-05-07T11:26:47;1.60;;;1.60;;
5752;SDS011;2901;42.140;24.760;2023-05-07T11:29:22;2.35;;;2.25;;
5752;SDS011;2901;42.140;24.760;2023-05-07T11:31:48;2.97;;;2.08;;
5752;SDS011;2901;42.140;24.760;2023-05-07T11:34:15;2.03;;;1.92;;
5752;SDS011;2901;42.140;24.760;2023-05-07T11:36:46;3.60;;;2.30;;
5752;SDS011;2901;42.140;24.760;2023-05-07T11:41:50;3.67;;;2.50;;
5752;SDS011;2901;42.140;24.760;2023-05-07T11:44:16;2.58;;;2.40;;
5752;SDS011;2901;42.140;24.760;2023-05-07T11:46:42;2.40;;;2.30;;
5752;SDS011;2901;42.140;24.760;2023-05-07T11:49:09;2.20;;;2.10;;
5752;SDS011;2901;42.140;24.760;2023-05-07T11:51:35;2.35;;;2.25;;
5752;SDS011;2901;42.140;24.760;2023-05-07T11:54:00;2.45;;;2.17;;
5752;SDS011;2901;42.140;24.760;2023-05-07T11:56:28;2.50;;;2.30;;
5752;SDS011;2901;42.140;24.760;2023-05-07T11:58:54;2.60;;;2.50;;
5752;SDS011;2901;42.140;24.760;2023-05-07T12:01:19;3.53;;;2.53;;
5752;SDS011;2901;42.140;24.760;2023-05-07T12:03:45;2.45;;;2.28;;
5752;SDS011;2901;42.140;24.760;2023-05-07T12:06:11;3.50;;;2.20;;
5752;SDS011;2901;42.140;24.760;2023-05-07T12:08:38;3.45;;;2.67;;
5752;SDS011;2901;42.140;24.760;2023-05-07T12:11:08;2.42;;;2.22;;
5752;SDS011;2901;42.140;24.760;2023-05-07T12:13:37;2.35;;;2.15;;
5752;SDS011;2901;42.140;24.760;2023-05-07T12:16:03;2.42;;;2.22;;
5752;SDS011;2901;42.140;24.760;2023-05-07T12:18:30;2.72;;;2.53;;
5752;SDS011;2901;42.140;24.760;2023-05-07T12:20:56;2.95;;;2.85;;
5752;SDS011;2901;42.140;24.760;2023-05-07T12:23:21;2.35;;;2.15;;
5752;SDS011;2901;42.140;24.760;2023-05-07T12:25:47;6.28;;;1.88;;
5752;SDS011;2901;42.140;24.760;2023-05-07T12:28:14;3.53;;;2.53;;
5752;SDS011;2901;42.140;24.760;2023-05-07T12:30:44;2.42;;;2.33;;
5752;SDS011;2901;42.140;24.760;2023-05-07T12:33:11;2.40;;;2.30;;
5752;SDS011;2901;42.140;24.760;2023-05-07T12:35:37;2.33;;;2.05;;
5752;SDS011;2901;42.140;24.760;2023-05-07T12:38:08;2.67;;;2.53;;
5752;SDS011;2901;42.140;24.760;2023-05-07T12:40:42;2.78;;;2.00;;
5752;SDS011;2901;42.140;24.760;2023-05-07T12:43:28;3.47;;;2.83;;
5752;SDS011;2901;42.140;24.760;2023-05-07T12:45:54;2.95;;;2.35;;
5752;SDS011;2901;42.140;24.760;2023-05-07T12:48:22;2.20;;;2.10;;
5752;SDS011;2901;42.140;24.760;2023-05-07T12:50:49;3.00;;;2.80;;
5752;SDS011;2901;42.140;24.760;2023-05-07T12:53:15;2.28;;;2.10;;
5752;SDS011;2901;42.140;24.760;2023-05-07T12:58:17;2.15;;;1.95;;
5752;SDS011;2901;42.140;24.760;2023-05-07T13:00:49;5.22;;;2.00;;
5752;SDS011;2901;42.140;24.760;2023-05-07T13:03:28;3.95;;;2.03;;
5752;SDS011;2901;42.140;24.760;2023-05-07T13:05:59;4.63;;;2.55;;
5752;SDS011;2901;42.140;24.760;2023-05-07T13:08:38;4.75;;;2.00;;
5752;SDS011;2901;42.140;24.760;2023-05-07T13:11:08;2.65;;;2.33;;
5752;SDS011;2901;42.140;24.760;2023-05-07T13:13:36;2.80;;;2.30;;
5752;SDS011;2901;42.140;24.760;2023-05-07T13:16:03;2.10;;;2.00;;
5752;SDS011;2901;42.140;24.760;2023-05-07T13:18:30;2.65;;;2.30;;
5752;SDS011;2901;42.140;24.760;2023-05-07T13:20:57;3.58;;;2.40;;
5752;SDS011;2901;42.140;24.760;2023-05-07T13:23:23;6.47;;;2.40;;
5752;SDS011;2901;42.140;24.760;2023-05-07T13:25:49;2.45;;;2.22;;
5752;SDS011;2901;42.140;24.760;2023-05-07T13:28:15;2.33;;;2.10;;
5752;SDS011;2901;42.140;24.760;2023-05-07T13:30:40;3.47;;;1.95;;
5752;SDS011;2901;42.140;24.760;2023-05-07T13:33:06;2.25;;;2.15;;
5752;SDS011;2901;42.140;24.760;2023-05-07T13:35:32;6.50;;;2.40;;
5752;SDS011;2901;42.140;24.760;2023-05-07T13:37:57;2.15;;;2.05;;
5752;SDS011;2901;42.140;24.760;2023-05-07T13:40:23;2.05;;;1.95;;
5752;SDS011;2901;42.140;24.760;2023-05-07T13:42:49;3.47;;;1.98;;
5752;SDS011;2901;42.140;24.760;2023-05-07T13:45:17;4.10;;;1.95;;
5752;SDS011;2901;42.140;24.760;2023-05-07T13:47:43;2.00;;;1.90;;
5752;SDS011;2901;42.140;24.760;2023-05-07T13:50:09;1.63;;;1.48;;
5752;SDS011;2901;42.140;24.760;2023-05-07T13:52:36;3.05;;;1.75;;
5752;SDS011;2901;42.140;24.760;2023-05-07T13:55:02;2.20;;;2.10;;
5752;SDS011;2901;42.140;24.760;2023-05-07T13:57:28;2.03;;;1.77;;
5752;SDS011;2901;42.140;24.760;2023-05-07T13:59:53;4.60;;;2.03;;
5752;SDS011;2901;42.140;24.760;2023-05-07T14:02:19;2.15;;;2.05;;
5752;SDS011;2901;42.140;24.760;2023-05-07T14:04:44;2.03;;;1.92;;
5752;SDS011;2901;42.140;24.760;2023-05-07T14:07:10;1.70;;;1.60;;
5752;SDS011;2901;42.140;24.760;2023-05-07T14:09:35;1.50;;;1.50;;
5752;SDS011;2901;42.140;24.760;2023-05-07T14:12:00;1.63;;;1.60;;
5752;SDS011;2901;42.140;24.760;2023-05-07T14:14:26;1.92;;;1.80;;
5752;SDS011;2901;42.140;24.760;2023-05-07T14:16:52;2.20;;;2.00;;
5752;SDS011;2901;42.140;24.760;2023-05-07T14:19:17;1.55;;;1.45;;
5752;SDS011;2901;42.140;24.760;2023-05-07T14:21:42;1.95;;;1.85;;
5752;SDS011;2901;42.140;24.760;2023-05-07T14:24:08;3.72;;;1.88;;
5752;SDS011;2901;42.140;24.760;2023-05-07T14:26:33;2.17;;;1.98;;
5752;SDS011;2901;42.140;24.760;2023-05-07T14:28:59;2.22;;;2.03;;
5752;SDS011;2901;42.140;24.760;2023-05-07T14:31:25;3.63;;;2.00;;
5752;SDS011;2901;42.140;24.760;2023-05-07T14:33:51;1.52;;;1.42;;
5752;SDS011;2901;42.140;24.760;2023-05-07T14:36:17;1.65;;;1.50;;
5752;SDS011;2901;42.140;24.760;2023-05-07T14:38:45;2.05;;;1.77;;
5752;SDS011;2901;42.140;24.760;2023-05-07T14:41:11;4.65;;;2.10;;
5752;SDS011;2901;42.140;24.760;2023-05-07T14:43:36;4.97;;;1.90;;
5752;SDS011;2901;42.140;24.760;2023-05-07T14:46:01;2.60;;;2.13;;
5752;SDS011;2901;42.140;24.760;2023-05-07T14:48:27;1.70;;;1.60;;
5752;SDS011;2901;42.140;24.760;2023-05-07T14:50:52;2.55;;;1.70;;
5752;SDS011;2901;42.140;24.760;2023-05-07T14:53:17;2.00;;;1.90;;
5752;SDS011;2901;42.140;24.760;2023-05-07T14:55:43;1.83;;;1.73;;
5752;SDS011;2901;42.140;24.760;2023-05-07T14:58:08;2.00;;;1.90;;
5752;SDS011;2901;42.140;24.760;2023-05-07T15:00:34;1.98;;;1.88;;
5752;SDS011;2901;42.140;24.760;2023-05-07T15:03:06;2.85;;;2.38;;
5752;SDS011;2901;42.140;24.760;2023-05-07T15:05:33;3.03;;;1.50;;
5752;SDS011;2901;42.140;24.760;2023-05-07T15:07:59;2.40;;;1.70;;
5752;SDS011;2901;42.140;24.760;2023-05-07T15:10:24;2.72;;;1.73;;
5752;SDS011;2901;42.140;24.760;2023-05-07T15:12:50;2.50;;;1.77;;
5752;SDS011;2901;42.140;24.760;2023-05-07T15:15:15;1.83;;;1.73;;
5752;SDS011;2901;42.140;24.760;2023-05-07T15:17:41;4.15;;;2.08;;